createdAt,value
2023-09-13T00:00:56.558Z,92.85
2023-09-13T00:03:23.907Z,92.98
2023-09-13T00:05:51.041Z,92.65
2023-09-13T00:08:18.143Z,92.88
2023-09-13T00:10:46.134Z,93.08
2023-09-13T00:13:14.832Z,92.29
2023-09-13T00:15:43.979Z,92.66
2023-09-13T00:18:11.345Z,92.71
2023-09-13T00:20:39.766Z,93.00
2023-09-13T00:23:07.609Z,92.15
2023-09-13T00:25:34.956Z,92.16
2023-09-13T00:28:02.082Z,92.01
2023-09-13T00:30:30.584Z,92.08
2023-09-13T00:32:57.812Z,92.16
2023-09-13T00:35:25.066Z,91.83
2023-09-13T00:37:52.406Z,91.38
2023-09-13T00:40:19.660Z,90.98
2023-09-13T00:42:46.919Z,90.98
2023-09-13T00:45:14.130Z,89.95
2023-09-13T00:47:43.315Z,90.35
2023-09-13T00:50:12.795Z,90.62
2023-09-13T00:52:41.267Z,90.51
2023-09-13T00:55:10.920Z,90.79
2023-09-13T00:57:38.419Z,90.62
2023-09-13T01:00:10.815Z,90.88
2023-09-13T01:02:41.207Z,90.05
2023-09-13T01:05:10.685Z,89.68
2023-09-13T01:07:41.711Z,90.17
2023-09-13T01:10:10.349Z,90.15
2023-09-13T01:12:37.810Z,89.60
2023-09-13T01:15:08.245Z,89.77
2023-09-13T01:17:41.282Z,88.92
2023-09-13T01:20:17.867Z,88.00
2023-09-13T01:22:56.250Z,87.86
2023-09-13T01:25:43.468Z,88.50
2023-09-13T01:28:26.393Z,87.82
2023-09-13T01:30:53.573Z,87.84
2023-09-13T01:33:20.715Z,87.90
2023-09-13T01:35:48.094Z,88.12
2023-09-13T01:38:15.157Z,88.58
2023-09-13T01:40:45.836Z,88.78
2023-09-13T01:43:14.398Z,89.21
2023-09-13T01:45:43.014Z,90.06
2023-09-13T01:48:12.670Z,88.72
2023-09-13T01:50:40.404Z,88.87
2023-09-13T01:53:07.694Z,88.37
2023-09-13T01:55:36.481Z,89.03
2023-09-13T01:58:03.840Z,89.38
2023-09-13T02:00:31.047Z,89.63
2023-09-13T02:02:58.370Z,89.77
2023-09-13T02:05:25.649Z,89.34
2023-09-13T02:07:52.780Z,88.96
2023-09-13T02:10:20.190Z,88.71
2023-09-13T02:12:47.290Z,88.67
2023-09-13T02:15:14.514Z,89.22
2023-09-13T02:17:43.169Z,90.64
2023-09-13T02:20:12.824Z,89.57
2023-09-13T02:22:39.929Z,89.77
2023-09-13T02:25:09.964Z,89.14
2023-09-13T02:27:37.220Z,89.64
2023-09-13T02:30:06.154Z,88.83
2023-09-13T02:32:33.349Z,89.09
2023-09-13T02:35:00.888Z,89.97
2023-09-13T02:37:29.553Z,89.20
2023-09-13T02:39:58.919Z,88.05
2023-09-13T02:42:26.304Z,88.45
2023-09-13T02:44:53.528Z,88.42
2023-09-13T02:47:20.673Z,88.60
2023-09-13T02:49:47.810Z,88.20
2023-09-13T02:52:15.015Z,89.32
2023-09-13T02:54:42.131Z,88.68
2023-09-13T02:57:09.558Z,88.88
2023-09-13T02:59:36.814Z,88.99
2023-09-13T03:02:04.188Z,88.89
2023-09-13T03:04:31.516Z,89.16
2023-09-13T03:06:58.783Z,89.04
2023-09-13T03:09:25.834Z,88.57
2023-09-13T03:11:53.081Z,88.77
2023-09-13T03:14:20.177Z,89.61
2023-09-13T03:16:47.474Z,89.93
2023-09-13T03:19:14.602Z,90.02
2023-09-13T03:21:45.911Z,89.17
2023-09-13T03:24:13.222Z,89.28
2023-09-13T03:26:40.726Z,89.89
2023-09-13T03:29:07.866Z,89.60
2023-09-13T03:31:37.666Z,89.07
2023-09-13T03:34:05.707Z,89.56
2023-09-13T03:36:34.010Z,89.49
2023-09-13T03:39:02.474Z,89.05
2023-09-13T03:41:29.610Z,89.52
2023-09-13T03:43:57.048Z,90.32
2023-09-13T03:46:24.144Z,88.87
2023-09-13T03:48:51.392Z,89.38
2023-09-13T03:51:18.534Z,89.29
2023-09-13T03:53:47.141Z,89.27
2023-09-13T03:56:14.604Z,89.29
2023-09-13T03:58:41.748Z,89.83
2023-09-13T04:01:09.253Z,89.96
2023-09-13T04:03:36.558Z,89.83
2023-09-13T04:06:04.162Z,89.99
2023-09-13T04:08:31.281Z,90.22
2023-09-13T04:10:58.481Z,90.19
2023-09-13T04:13:25.963Z,90.60
2023-09-13T04:15:53.397Z,90.59
2023-09-13T04:18:20.744Z,91.09
2023-09-13T04:20:48.423Z,89.52
2023-09-13T04:23:16.485Z,89.89
2023-09-13T04:25:44.174Z,90.06
2023-09-13T04:28:11.470Z,90.05
2023-09-13T04:30:38.945Z,91.53
2023-09-13T04:33:08.311Z,91.73
2023-09-13T04:35:35.917Z,90.11
2023-09-13T04:38:04.186Z,90.56
2023-09-13T04:40:31.508Z,90.47
2023-09-13T04:43:07.236Z,89.63
2023-09-13T04:45:35.145Z,90.06
2023-09-13T04:48:02.564Z,90.07
2023-09-13T04:50:30.268Z,89.92
2023-09-13T04:52:57.529Z,90.10
2023-09-13T04:55:25.334Z,90.32
2023-09-13T04:57:52.709Z,90.38
2023-09-13T05:00:20.258Z,90.32
2023-09-13T05:02:47.693Z,90.55
2023-09-13T05:05:14.990Z,90.16
2023-09-13T05:07:42.217Z,89.67
2023-09-13T05:10:09.584Z,89.57
2023-09-13T05:12:36.693Z,89.65
2023-09-13T05:15:04.190Z,89.65
2023-09-13T05:17:31.474Z,90.20
2023-09-13T05:19:58.840Z,90.03
2023-09-13T05:22:26.227Z,89.19
2023-09-13T05:24:53.460Z,88.55
2023-09-13T05:27:20.795Z,88.32
2023-09-13T05:29:49.403Z,88.38
2023-09-13T05:32:16.802Z,88.76
2023-09-13T05:34:44.078Z,88.44
2023-09-13T05:37:11.497Z,88.51
2023-09-13T05:39:38.848Z,89.00
2023-09-13T05:42:06.622Z,88.98
2023-09-13T05:44:34.814Z,89.04
2023-09-13T05:47:02.077Z,88.67
2023-09-13T05:49:31.211Z,88.42
2023-09-13T05:51:58.556Z,88.07
2023-09-13T05:54:26.025Z,88.11
2023-09-13T05:56:56.919Z,87.91
2023-09-13T05:59:24.780Z,87.82
2023-09-13T06:01:52.568Z,87.68
2023-09-13T06:04:20.071Z,87.79
2023-09-13T06:06:47.352Z,87.92
2023-09-13T06:09:14.983Z,88.17
2023-09-13T06:11:42.281Z,88.10
2023-09-13T06:14:11.737Z,88.04
2023-09-13T06:16:39.625Z,88.34
2023-09-13T06:19:07.130Z,87.95
2023-09-13T06:21:34.319Z,88.20
2023-09-13T06:24:06.831Z,88.00
2023-09-13T06:26:35.796Z,87.99
2023-09-13T06:29:03.756Z,88.26
2023-09-13T06:31:34.273Z,88.04
2023-09-13T06:36:34.133Z,89.17
2023-09-13T06:39:02.047Z,88.86
2023-09-13T06:41:30.090Z,88.41
2023-09-13T06:44:06.533Z,88.07
2023-09-13T06:46:39.122Z,87.14
2023-09-13T06:49:08.281Z,87.36
2023-09-13T06:54:06.813Z,87.20
2023-09-13T06:56:38.482Z,87.68
2023-09-13T06:59:10.436Z,87.35
2023-09-13T07:02:05.945Z,87.74
2023-09-13T07:04:32.275Z,87.86
2023-09-13T07:07:04.239Z,88.11
2023-09-13T07:09:31.908Z,88.32
2023-09-13T07:11:59.306Z,87.88
2023-09-13T07:14:26.924Z,88.25
2023-09-13T07:16:54.209Z,87.80
2023-09-13T07:19:21.553Z,87.64
2023-09-13T07:21:49.146Z,87.50
2023-09-13T07:24:17.512Z,87.48
2023-09-13T07:26:45.106Z,87.67
2023-09-13T07:29:12.659Z,87.68
2023-09-13T07:31:40.197Z,88.29
2023-09-13T07:34:07.757Z,87.55
2023-09-13T07:36:35.163Z,87.23
2023-09-13T07:39:04.926Z,87.87
2023-09-13T07:41:32.267Z,86.52
2023-09-13T07:43:59.654Z,85.90
2023-09-13T07:46:26.948Z,85.87
2023-09-13T07:48:54.677Z,86.13
2023-09-13T07:51:21.953Z,85.79
2023-09-13T07:53:49.417Z,85.93
2023-09-13T07:56:16.770Z,85.62
2023-09-13T07:58:44.254Z,85.70
2023-09-13T08:01:13.609Z,84.57
2023-09-13T08:03:41.123Z,83.04
2023-09-13T08:06:08.481Z,83.23
2023-09-13T08:08:35.784Z,83.20
2023-09-13T08:11:03.427Z,83.53
2023-09-13T08:13:31.171Z,84.02
2023-09-13T08:15:59.917Z,83.93
2023-09-13T08:18:27.498Z,83.74
2023-09-13T08:20:55.011Z,82.54
2023-09-13T08:23:22.336Z,81.90
2023-09-13T08:25:49.762Z,81.98
2023-09-13T08:28:16.924Z,81.67
2023-09-13T08:30:46.810Z,81.46
2023-09-13T08:33:14.529Z,81.53
2023-09-13T08:35:42.176Z,81.44
2023-09-13T08:38:09.919Z,81.17
2023-09-13T08:40:47.074Z,80.72
2023-09-13T08:43:18.944Z,80.93
2023-09-13T08:45:49.355Z,81.12
2023-09-13T08:48:18.279Z,81.51
2023-09-13T08:50:46.709Z,80.88
2023-09-13T08:53:15.689Z,81.50
2023-09-13T08:55:43.059Z,81.63
2023-09-13T08:58:10.838Z,80.72
2023-09-13T09:00:41.562Z,81.43
2023-09-13T09:03:12.801Z,80.24
2023-09-13T09:05:42.062Z,79.92
2023-09-13T09:08:12.160Z,80.57
2023-09-13T09:10:39.773Z,80.43
2023-09-13T09:13:09.389Z,80.49
2023-09-13T09:15:39.196Z,78.58
2023-09-13T09:18:11.029Z,78.55
2023-09-13T09:20:41.231Z,78.90
2023-09-13T09:23:09.323Z,78.99
2023-09-13T09:25:41.000Z,77.85
2023-09-13T09:28:08.353Z,77.79
2023-09-13T09:30:36.483Z,78.03
2023-09-13T09:33:06.602Z,77.01
2023-09-13T09:35:34.726Z,76.84
2023-09-13T09:38:02.378Z,76.59
2023-09-13T09:40:37.532Z,77.42
2023-09-13T09:43:05.087Z,77.29
2023-09-13T09:45:32.309Z,77.42
2023-09-13T09:47:59.792Z,76.81
2023-09-13T09:50:26.957Z,75.31
2023-09-13T09:52:54.501Z,73.48
2023-09-13T09:55:23.534Z,74.06
2023-09-13T09:57:52.677Z,74.47
2023-09-13T10:00:20.783Z,71.55
2023-09-13T10:02:49.596Z,70.95
2023-09-13T10:05:20.076Z,71.51
2023-09-13T10:07:53.178Z,71.48
2023-09-13T10:10:35.313Z,72.13
2023-09-13T10:13:02.625Z,72.30
2023-09-13T10:15:30.155Z,72.05
2023-09-13T10:18:02.695Z,71.66
2023-09-13T10:20:32.228Z,71.53
2023-09-13T10:23:02.321Z,71.56
2023-09-13T10:25:33.405Z,71.09
2023-09-13T10:28:02.881Z,70.60
2023-09-13T10:30:34.663Z,70.65
2023-09-13T10:33:05.475Z,70.38
2023-09-13T10:35:39.212Z,70.97
2023-09-13T10:38:18.318Z,70.75
2023-09-13T10:40:52.563Z,70.59
2023-09-13T10:43:22.101Z,69.05
2023-09-13T10:45:49.577Z,69.09
2023-09-13T10:48:17.934Z,69.23
2023-09-13T10:50:45.237Z,69.94
2023-09-13T10:53:15.862Z,70.34
2023-09-13T10:55:44.704Z,70.06
2023-09-13T10:58:19.756Z,69.46
2023-09-13T11:00:49.245Z,69.79
2023-09-13T11:03:18.931Z,69.91
2023-09-13T11:05:52.887Z,71.00
2023-09-13T11:08:32.272Z,68.90
2023-09-13T11:11:10.102Z,68.58
2023-09-13T11:13:38.660Z,68.89
2023-09-13T11:16:06.033Z,69.10
2023-09-13T11:18:33.936Z,70.09
2023-09-13T11:21:01.587Z,69.97
2023-09-13T11:23:58.542Z,66.77
2023-09-13T11:26:47.339Z,67.91
2023-09-13T11:29:26.406Z,67.97
2023-09-13T11:32:02.891Z,68.43
2023-09-13T11:34:31.297Z,68.41
2023-09-13T11:37:01.955Z,68.10
2023-09-13T11:39:30.149Z,68.48
2023-09-13T11:41:58.002Z,68.34
2023-09-13T11:44:33.688Z,68.25
2023-09-13T11:47:02.556Z,67.93
2023-09-13T11:49:37.816Z,69.01
2023-09-13T11:52:26.097Z,69.50
2023-09-13T11:55:05.426Z,69.64
2023-09-13T11:57:58.233Z,69.40
2023-09-13T12:00:29.017Z,68.66
2023-09-13T12:02:57.925Z,68.02
2023-09-13T12:05:45.340Z,68.79
2023-09-13T12:08:30.437Z,67.46
2023-09-13T12:11:00.885Z,67.74
2023-09-13T12:14:07.441Z,67.15
2023-09-13T12:16:39.357Z,67.73
2023-09-13T12:19:07.828Z,67.99
2023-09-13T12:21:35.664Z,67.65
2023-09-13T12:24:04.179Z,67.62
2023-09-13T12:26:32.080Z,67.81
2023-09-13T12:28:59.568Z,66.12
2023-09-13T12:31:27.179Z,66.14
2023-09-13T12:33:54.601Z,65.89
2023-09-13T12:36:23.912Z,66.89
2023-09-13T12:38:51.595Z,66.46
2023-09-13T12:41:21.781Z,65.93
2023-09-13T12:44:01.777Z,65.13
2023-09-13T12:46:52.933Z,65.67
2023-09-13T12:49:24.843Z,66.11
2023-09-13T12:51:53.518Z,66.17
2023-09-13T12:54:21.203Z,65.83
2023-09-13T12:56:48.752Z,66.21
2023-09-13T12:59:16.602Z,66.37
2023-09-13T13:01:45.429Z,67.05
2023-09-13T13:04:13.459Z,65.52
2023-09-13T13:07:01.488Z,66.25
2023-09-13T13:09:30.372Z,66.02
2023-09-13T13:11:58.528Z,65.43
2023-09-13T13:14:28.684Z,65.95
2023-09-13T13:16:59.266Z,66.05
2023-09-13T13:22:11.731Z,64.33
2023-09-13T13:24:40.798Z,63.06
2023-09-13T13:27:08.984Z,64.03
2023-09-13T13:29:37.745Z,64.21
2023-09-13T13:32:06.169Z,64.08
2023-09-13T13:34:34.266Z,64.28
2023-09-13T13:37:02.158Z,64.78
2023-09-13T13:39:30.827Z,64.39
2023-09-13T13:41:58.819Z,63.95
2023-09-13T13:44:27.120Z,63.62
2023-09-13T13:46:54.744Z,62.98
2023-09-13T13:49:22.327Z,63.54
2023-09-13T13:51:52.260Z,63.78
2023-09-13T13:54:20.996Z,64.81
2023-09-13T13:56:49.221Z,64.99
2023-09-13T13:59:19.460Z,64.04
2023-09-13T14:01:57.103Z,65.26
2023-09-13T14:04:25.594Z,65.05
2023-09-13T14:06:53.485Z,63.79
2023-09-13T14:09:21.275Z,63.47
2023-09-13T14:11:49.187Z,64.01
2023-09-13T14:14:20.396Z,64.04
2023-09-13T14:16:50.485Z,62.09
2023-09-13T14:19:18.728Z,62.19
2023-09-13T14:21:46.487Z,62.77
2023-09-13T14:24:14.526Z,62.98
2023-09-13T14:26:43.174Z,63.36
2023-09-13T14:29:12.949Z,63.72
2023-09-13T14:31:40.621Z,63.53
2023-09-13T14:34:08.718Z,62.67
2023-09-13T14:36:36.491Z,62.87
2023-09-13T14:39:05.440Z,63.77
2023-09-13T14:41:33.656Z,63.49
2023-09-13T14:44:02.876Z,63.68
2023-09-13T14:46:31.111Z,62.51
2023-09-13T14:48:59.122Z,62.30
2023-09-13T14:51:26.992Z,62.24
2023-09-13T14:53:54.624Z,62.13
2023-09-13T14:56:22.275Z,61.76
2023-09-13T14:58:50.070Z,62.32
2023-09-13T15:01:17.953Z,62.04
2023-09-13T15:03:45.892Z,62.87
2023-09-13T15:06:19.053Z,61.04
2023-09-13T15:08:50.300Z,61.45
2023-09-13T15:11:18.518Z,61.72
2023-09-13T15:13:47.883Z,61.40
2023-09-13T15:16:16.170Z,61.79
2023-09-13T15:18:45.752Z,61.37
2023-09-13T15:21:14.511Z,59.93
2023-09-13T15:23:43.332Z,60.33
2023-09-13T15:26:11.927Z,59.78
2023-09-13T15:28:40.246Z,60.61
2023-09-13T15:31:09.518Z,60.97
2023-09-13T15:33:38.216Z,61.43
2023-09-13T15:36:06.664Z,61.35
2023-09-13T15:38:49.215Z,60.92
2023-09-13T15:41:25.024Z,61.11
2023-09-13T15:43:53.351Z,60.89
2023-09-13T15:46:39.965Z,60.59
2023-09-13T15:49:08.768Z,61.46
2023-09-13T15:51:37.233Z,60.86
2023-09-13T15:54:05.266Z,61.39
2023-09-13T15:56:33.373Z,61.29
2023-09-13T15:59:02.050Z,62.35
2023-09-13T16:01:32.257Z,62.23
2023-09-13T16:04:01.635Z,61.84
2023-09-13T16:06:29.628Z,63.08
2023-09-13T16:08:57.831Z,62.62
2023-09-13T16:11:25.852Z,61.99
2023-09-13T16:13:55.136Z,62.25
2023-09-13T16:16:24.211Z,63.76
2023-09-13T16:18:54.523Z,64.26
2023-09-13T16:21:23.295Z,64.24
2023-09-13T16:23:56.492Z,64.43
2023-09-13T16:26:25.427Z,64.78
2023-09-13T16:28:54.837Z,64.97
2023-09-13T16:31:22.696Z,66.26
2023-09-13T16:33:51.386Z,65.50
2023-09-13T16:36:19.774Z,65.28
2023-09-13T16:38:47.978Z,65.31
2023-09-13T16:41:16.727Z,65.36
2023-09-13T16:43:45.866Z,68.09
2023-09-13T16:46:15.615Z,66.62
2023-09-13T16:48:47.935Z,66.54
2023-09-13T16:51:23.830Z,66.35
2023-09-13T16:53:52.684Z,65.56
2023-09-13T16:56:24.288Z,66.29
2023-09-13T16:58:56.802Z,65.64
2023-09-13T17:01:28.032Z,64.87
2023-09-13T17:04:01.149Z,64.46
2023-09-13T17:06:31.113Z,64.51
2023-09-13T17:09:01.690Z,64.59
2023-09-13T17:11:32.032Z,66.96
2023-09-13T17:14:01.292Z,65.83
2023-09-13T17:16:30.132Z,64.71
2023-09-13T17:18:59.331Z,63.88
2023-09-13T17:21:27.695Z,63.43
2023-09-13T17:23:56.272Z,64.06
2023-09-13T17:26:24.222Z,64.07
2023-09-13T17:28:52.331Z,64.17
2023-09-13T17:31:20.990Z,64.88
2023-09-13T17:33:48.892Z,65.05
2023-09-13T17:36:28.021Z,65.64
2023-09-13T17:39:05.845Z,65.61
2023-09-13T17:41:35.026Z,65.87
2023-09-13T17:44:02.981Z,66.02
2023-09-13T17:46:31.040Z,66.88
2023-09-13T17:49:01.641Z,66.64
2023-09-13T17:51:30.259Z,67.22
2023-09-13T17:53:59.149Z,67.12
2023-09-13T17:56:27.480Z,66.81
2023-09-13T17:58:55.292Z,66.66
2023-09-13T18:01:24.498Z,66.95
2023-09-13T18:03:52.749Z,67.38
2023-09-13T18:06:20.980Z,67.51
2023-09-13T18:08:48.833Z,68.82
2023-09-13T18:11:17.060Z,67.42
2023-09-13T18:13:46.790Z,67.27
2023-09-13T18:16:15.169Z,66.95
2023-09-13T18:18:43.313Z,66.67
2023-09-13T18:21:12.849Z,66.83
2023-09-13T18:23:40.964Z,67.42
2023-09-13T18:26:11.263Z,68.00
2023-09-13T18:28:39.013Z,67.86
2023-09-13T18:31:08.021Z,67.37
2023-09-13T18:33:37.908Z,67.71
2023-09-13T18:36:06.811Z,67.99
2023-09-13T18:38:35.641Z,68.46
2023-09-13T18:41:04.742Z,68.61
2023-09-13T18:43:32.309Z,68.16
2023-09-13T18:46:05.092Z,67.70
2023-09-13T18:48:40.713Z,67.48
2023-09-13T18:51:07.954Z,67.06
2023-09-13T18:53:35.384Z,66.66
2023-09-13T18:56:05.335Z,66.99
2023-09-13T18:58:32.709Z,67.64
2023-09-13T19:01:01.576Z,67.45
2023-09-13T19:03:30.343Z,67.66
2023-09-13T19:06:00.369Z,67.39
2023-09-13T19:08:29.498Z,67.56
2023-09-13T19:10:57.824Z,67.18
2023-09-13T19:13:25.320Z,67.51
2023-09-13T19:15:59.415Z,69.35
2023-09-13T19:18:29.189Z,68.80
2023-09-13T19:20:56.919Z,69.51
2023-09-13T19:23:26.919Z,70.75
2023-09-13T19:25:55.788Z,71.34
2023-09-13T19:28:24.252Z,71.70
2023-09-13T19:30:53.428Z,72.08
2023-09-13T19:33:25.389Z,74.41
2023-09-13T19:35:55.343Z,73.43
2023-09-13T19:38:30.358Z,73.12
2023-09-13T19:40:59.236Z,73.42
2023-09-13T19:43:27.993Z,73.82
2023-09-13T19:45:57.364Z,73.82
2023-09-13T19:48:25.945Z,74.02
2023-09-13T19:50:56.450Z,75.01
2023-09-13T19:53:25.555Z,74.96
2023-09-13T19:55:53.005Z,74.92
2023-09-13T19:58:20.541Z,75.28
2023-09-13T20:00:48.873Z,75.38
2023-09-13T20:03:16.885Z,75.46
2023-09-13T20:05:44.216Z,75.78
2023-09-13T20:08:12.274Z,76.10
2023-09-13T20:10:39.687Z,75.91
2023-09-13T20:13:07.824Z,75.78
2023-09-13T20:15:34.950Z,75.71
2023-09-13T20:18:02.372Z,75.82
2023-09-13T20:20:29.694Z,75.65
2023-09-13T20:22:57.005Z,77.44
2023-09-13T20:25:24.605Z,76.81
2023-09-13T20:27:52.079Z,76.57
2023-09-13T20:30:19.619Z,76.25
2023-09-13T20:32:47.071Z,76.30
2023-09-13T20:35:15.374Z,76.20
2023-09-13T20:37:44.368Z,76.43
2023-09-13T20:40:12.543Z,76.68
2023-09-13T20:42:40.815Z,77.08
2023-09-13T20:45:14.272Z,77.54
2023-09-13T20:47:42.807Z,77.66
2023-09-13T20:50:10.470Z,77.15
2023-09-13T20:52:38.904Z,77.44
2023-09-13T20:55:06.506Z,77.34
2023-09-13T20:57:33.946Z,77.93
2023-09-13T21:00:01.173Z,77.95
2023-09-13T21:02:28.440Z,78.03
2023-09-13T21:04:57.923Z,78.58
2023-09-13T21:07:27.465Z,78.58
2023-09-13T21:09:56.155Z,78.54
2023-09-13T21:12:25.319Z,78.99
2023-09-13T21:14:54.917Z,80.03
2023-09-13T21:17:24.371Z,79.43
2023-09-13T21:19:53.113Z,79.17
2023-09-13T21:22:20.680Z,79.06
2023-09-13T21:24:50.535Z,78.88
2023-09-13T21:27:17.979Z,78.74
2023-09-13T21:29:45.243Z,79.13
2023-09-13T21:32:13.158Z,79.43
2023-09-13T21:34:54.831Z,79.98
2023-09-13T21:37:26.979Z,79.42
2023-09-13T21:39:54.276Z,78.52
2023-09-13T21:42:22.714Z,78.42
2023-09-13T21:44:55.443Z,78.90
2023-09-13T21:47:23.136Z,78.65
2023-09-13T21:49:50.488Z,79.13
2023-09-13T21:52:18.215Z,79.12
2023-09-13T21:54:50.135Z,80.14
2023-09-13T21:57:20.009Z,79.57
2023-09-13T21:59:47.628Z,79.66
2023-09-13T22:02:15.113Z,79.81
2023-09-13T22:04:42.513Z,79.16
2023-09-13T22:07:10.204Z,78.86
2023-09-13T22:09:37.777Z,78.33
2023-09-13T22:12:06.136Z,78.02
2023-09-13T22:14:33.710Z,78.42
2023-09-13T22:17:01.313Z,79.11
2023-09-13T22:19:28.725Z,78.56
2023-09-13T22:21:56.514Z,78.14
2023-09-13T22:24:26.092Z,79.15
2023-09-13T22:26:54.022Z,79.01
2023-09-13T22:29:21.783Z,78.77
2023-09-13T22:31:49.587Z,78.73
2023-09-13T22:34:16.745Z,78.88
2023-09-13T22:36:44.008Z,79.53
2023-09-13T22:39:11.504Z,79.62
2023-09-13T22:41:41.825Z,79.75
2023-09-13T22:44:09.360Z,79.99
2023-09-13T22:46:37.834Z,81.29
2023-09-13T22:49:05.170Z,80.56
2023-09-13T22:51:32.356Z,80.80
2023-09-13T22:53:59.991Z,81.11
2023-09-13T22:56:27.368Z,81.15
2023-09-13T22:58:56.026Z,81.31
2023-09-13T23:01:23.255Z,81.29
2023-09-13T23:03:50.493Z,81.53
2023-09-13T23:06:17.757Z,81.71
2023-09-13T23:08:45.289Z,82.42
2023-09-13T23:11:13.663Z,81.80
2023-09-13T23:13:40.983Z,81.28
2023-09-13T23:16:09.350Z,81.06
2023-09-13T23:18:37.580Z,81.65
2023-09-13T23:21:04.951Z,81.46
2023-09-13T23:23:32.290Z,81.68
2023-09-13T23:26:01.430Z,81.69
2023-09-13T23:28:28.821Z,81.59
2023-09-13T23:31:06.377Z,82.23
2023-09-13T23:33:34.764Z,82.01
2023-09-13T23:36:06.986Z,82.18
2023-09-13T23:38:34.305Z,82.50
2023-09-13T23:41:07.127Z,82.17
2023-09-13T23:43:36.226Z,82.50
2023-09-13T23:46:05.390Z,82.33
2023-09-13T23:48:34.079Z,82.42
2023-09-13T23:51:02.732Z,82.68
2023-09-13T23:53:29.926Z,81.87
2023-09-13T23:55:57.751Z,81.85
2023-09-13T23:58:24.936Z,82.55
